Time;durP1;ratioP1;P1;durP2;ratioP2;P2;SDS_P1;SDS_P2;PMS_P1;PMS_P2;Temp;Humidity;BMP_temperature;BMP_pressure;BME280_temperature;BME280_humidity;BME280_pressure;Samples;Min_cycle;Max_cycle;Signal;HPM_P1;HPM_P2
2022/04/24 00:00:00;;;;;;;0.17;0.10;;;12.60;99.90;;;;;;4919306;29;20028;-75
2022/04/24 00:02:27;;;;;;;0.00;0.00;;;12.60;99.90;;;;;;4918944;29;20028;-80
2022/04/24 00:04:53;;;;;;;0.10;0.10;;;12.60;99.90;;;;;;4919205;29;20123;-75
2022/04/24 00:07:19;;;;;;;0.05;0.05;;;12.60;99.90;;;;;;4919654;29;20052;-82
2022/04/24 00:09:44;;;;;;;0.22;0.22;;;12.60;99.90;;;;;;4919330;29;20376;-75
2022/04/24 00:12:15;;;;;;;1.45;0.63;;;12.60;99.90;;;;;;4919477;29;20074;-75
2022/04/24 00:14:42;;;;;;;0.10;0.10;;;12.60;99.90;;;;;;4919009;29;20032;-75
2022/04/24 00:17:07;;;;;;;0.00;0.00;;;12.60;99.90;;;;;;4919134;29;20040;-82
2022/04/24 00:19:33;;;;;;;0.43;0.20;;;12.60;99.90;;;;;;4920381;29;20036;-80
2022/04/24 00:21:59;;;;;;;0.00;0.00;;;12.60;99.90;;;;;;4931833;29;20070;-79
2022/04/24 00:24:25;;;;;;;0.20;0.20;;;12.60;99.90;;;;;;4919400;29;20043;-75
2022/04/24 00:26:52;;;;;;;1.38;0.95;;;12.70;99.90;;;;;;4919105;29;20080;-81
2022/04/24 00:29:18;;;;;;;0.40;0.40;;;12.70;99.90;;;;;;4918618;29;20028;-81
2022/04/24 00:31:43;;;;;;;0.15;0.15;;;12.60;99.90;;;;;;4919011;29;20024;-82
2022/04/24 00:34:09;;;;;;;0.03;0.03;;;12.70;99.90;;;;;;4918681;29;20036;-75
2022/04/24 00:36:34;;;;;;;0.20;0.20;;;12.70;99.90;;;;;;4919116;29;20031;-75
2022/04/24 00:39:00;;;;;;;3.40;0.65;;;12.70;99.90;;;;;;4935130;29;20043;-75
2022/04/24 00:41:26;;;;;;;0.00;0.00;;;12.60;99.90;;;;;;4938027;29;20028;-75
2022/04/24 00:43:55;;;;;;;0.00;0.00;;;12.70;99.90;;;;;;4937919;29;20027;-75
2022/04/24 00:46:42;;;;;;;1.00;0.63;;;12.70;99.90;;;;;;4937800;29;20059;-75
2022/04/24 00:49:10;;;;;;;0.35;0.30;;;12.70;99.90;;;;;;4936422;29;20031;-74
2022/04/24 00:51:37;;;;;;;0.40;0.40;;;12.70;99.90;;;;;;4938406;29;20451;-74
2022/04/24 00:54:06;;;;;;;0.20;0.20;;;12.70;99.90;;;;;;4923055;29;20159;-80
2022/04/24 00:56:32;;;;;;;0.10;0.10;;;12.70;99.90;;;;;;4899555;29;20024;-75
2022/04/24 00:59:01;;;;;;;0.32;0.32;;;12.70;99.90;;;;;;4899760;29;20473;-75
2022/04/24 01:01:27;;;;;;;0.10;0.10;;;12.80;99.90;;;;;;4897937;29;20071;-75
2022/04/24 01:03:55;;;;;;;1.65;0.75;;;12.80;99.90;;;;;;4899606;29;20052;-75
2022/04/24 01:06:21;;;;;;;0.00;0.00;;;12.80;99.90;;;;;;4898318;29;20612;-75
2022/04/24 01:08:46;;;;;;;0.08;0.08;;;12.80;99.90;;;;;;4899691;29;20104;-75
2022/04/24 01:11:12;;;;;;;0.10;0.10;;;12.90;99.90;;;;;;4909348;29;20012;-79
2022/04/24 01:13:38;;;;;;;0.20;0.20;;;12.90;99.90;;;;;;4909761;29;20068;-82
2022/04/24 01:16:04;;;;;;;0.15;0.05;;;12.90;99.90;;;;;;4899213;29;20107;-75
2022/04/24 01:18:31;;;;;;;1.70;0.63;;;12.90;99.90;;;;;;4899468;29;20044;-74
2022/04/24 01:20:57;;;;;;;0.43;0.43;;;13.00;99.90;;;;;;4899385;29;20029;-81
2022/04/24 01:23:22;;;;;;;0.30;0.30;;;13.00;99.90;;;;;;4899593;29;20103;-82
2022/04/24 01:25:48;;;;;;;2.10;1.05;;;13.10;99.90;;;;;;4899050;29;20081;-75
2022/04/24 01:28:14;;;;;;;2.03;0.85;;;13.10;99.90;;;;;;4904970;29;20033;-75
2022/04/24 01:30:39;;;;;;;0.10;0.10;;;13.10;99.90;;;;;;4898560;29;20036;-75
2022/04/24 01:33:06;;;;;;;0.08;0.08;;;13.10;99.90;;;;;;4897876;29;20083;-82
2022/04/24 01:35:32;;;;;;;0.63;0.63;;;13.10;99.90;;;;;;4899071;29;20099;-75
2022/04/24 01:37:58;;;;;;;0.13;0.13;;;13.10;99.90;;;;;;4916192;29;20103;-75
2022/04/24 01:40:25;;;;;;;0.38;0.38;;;13.10;99.90;;;;;;4938753;29;20051;-75
2022/04/24 01:42:51;;;;;;;0.43;0.22;;;13.10;99.90;;;;;;4936949;29;20027;-80
2022/04/24 01:45:16;;;;;;;16.02;0.98;;;13.10;99.90;;;;;;4936879;29;20024;-75
2022/04/24 01:47:42;;;;;;;0.57;0.57;;;13.10;99.90;;;;;;4936400;29;20023;-75
2022/04/24 01:50:08;;;;;;;3.05;1.02;;;13.10;99.90;;;;;;4936509;29;20040;-81
2022/04/24 01:52:33;;;;;;;0.10;0.10;;;13.10;99.90;;;;;;4936534;29;20410;-75
2022/04/24 01:54:59;;;;;;;3.50;0.70;;;13.10;99.90;;;;;;4907264;29;20029;-75
2022/04/24 01:57:24;;;;;;;1.17;0.90;;;13.10;99.90;;;;;;4898766;29;20116;-81
2022/04/24 01:59:50;;;;;;;2.67;1.50;;;13.10;99.90;;;;;;4898784;29;20070;-76
2022/04/24 02:02:16;;;;;;;0.30;0.30;;;13.10;99.90;;;;;;4898107;29;20027;-82
2022/04/24 02:04:41;;;;;;;4.03;1.02;;;13.20;99.90;;;;;;4898273;29;20107;-75
2022/04/24 02:07:07;;;;;;;0.65;0.65;;;13.20;99.90;;;;;;4898761;29;20031;-75
2022/04/24 02:09:34;;;;;;;2.03;1.45;;;13.20;99.90;;;;;;4902015;29;20028;-75
2022/04/24 02:12:00;;;;;;;2.78;1.83;;;13.20;99.90;;;;;;4897927;29;20452;-75
2022/04/24 02:14:25;;;;;;;4.28;2.00;;;13.30;99.90;;;;;;4898450;29;20033;-75
2022/04/24 02:16:51;;;;;;;2.25;0.95;;;13.20;99.90;;;;;;4897200;29;20039;-74
2022/04/24 02:19:17;;;;;;;0.63;0.63;;;13.20;99.90;;;;;;4897758;29;20071;-75
2022/04/24 02:21:42;;;;;;;1.02;1.02;;;13.20;99.90;;;;;;4898600;29;20020;-81
2022/04/24 02:24:08;;;;;;;4.90;1.25;;;13.20;99.90;;;;;;4897860;29;20033;-81
2022/04/24 02:26:33;;;;;;;2.20;0.98;;;13.20;99.90;;;;;;4898341;29;20049;-81
2022/04/24 02:28:59;;;;;;;3.53;1.00;;;13.20;99.90;;;;;;4916031;29;20036;-75
2022/04/24 02:31:25;;;;;;;2.60;0.88;;;13.20;99.90;;;;;;4917211;29;20381;-75
2022/04/24 02:33:50;;;;;;;1.60;0.70;;;13.10;99.90;;;;;;4915869;29;20039;-75
2022/04/24 02:36:16;;;;;;;0.22;0.22;;;13.10;99.90;;;;;;4917453;29;20397;-74
2022/04/24 02:38:42;;;;;;;3.55;0.30;;;13.10;99.90;;;;;;4931608;29;20035;-75
2022/04/24 02:41:08;;;;;;;5.82;2.15;;;13.10;99.90;;;;;;4936455;29;20054;-82
2022/04/24 02:43:34;;;;;;;1.27;0.63;;;13.10;99.90;;;;;;4936189;29;20486;-80
2022/04/24 02:45:59;;;;;;;1.58;0.60;;;13.00;99.90;;;;;;4936119;29;20024;-74
2022/04/24 02:48:27;;;;;;;1.40;1.17;;;13.00;99.90;;;;;;4936129;29;20509;-75
2022/04/24 02:50:53;;;;;;;10.25;2.75;;;13.00;99.90;;;;;;4936324;29;20375;-75
2022/04/24 02:53:19;;;;;;;0.65;0.25;;;13.00;99.90;;;;;;4932619;29;20051;-80
2022/04/24 02:55:45;;;;;;;2.15;1.95;;;13.00;99.90;;;;;;4898090;29;20108;-75
2022/04/24 02:58:10;;;;;;;3.03;1.10;;;13.00;99.90;;;;;;4896015;29;20035;-77
2022/04/24 03:00:49;;;;;;;1.73;0.43;;;13.00;99.90;;;;;;4897701;29;20036;-81
2022/04/24 03:03:19;;;;;;;1.10;1.00;;;13.00;99.90;;;;;;4898164;29;20024;-75
2022/04/24 03:05:49;;;;;;;1.00;0.55;;;13.00;99.90;;;;;;4897014;29;20036;-82
2022/04/24 03:08:15;;;;;;;1.40;0.75;;;13.00;99.90;;;;;;4896511;29;20020;-81
2022/04/24 03:10:41;;;;;;;1.02;0.75;;;13.00;99.90;;;;;;4897851;29;20065;-81
2022/04/24 03:13:07;;;;;;;0.77;0.77;;;13.10;99.90;;;;;;4897432;29;20024;-75
2022/04/24 03:15:32;;;;;;;1.65;0.98;;;13.10;99.90;;;;;;4897795;29;20033;-75
2022/04/24 03:17:58;;;;;;;1.17;0.60;;;13.00;99.90;;;;;;4897784;29;20028;-75
2022/04/24 03:20:24;;;;;;;1.38;1.15;;;13.00;99.90;;;;;;4897336;29;20041;-81
2022/04/24 03:22:50;;;;;;;0.40;0.40;;;13.00;99.90;;;;;;4898598;29;20031;-74
2022/04/24 03:25:16;;;;;;;0.65;0.45;;;13.00;99.90;;;;;;4898963;29;20496;-75
2022/04/24 03:27:42;;;;;;;0.88;0.50;;;13.00;99.90;;;;;;4909278;29;20024;-75
2022/04/24 03:30:09;;;;;;;2.72;1.40;;;13.00;99.90;;;;;;4920261;29;20495;-75
2022/04/24 03:32:35;;;;;;;1.10;0.98;;;13.00;99.90;;;;;;4928529;29;20044;-81
2022/04/24 03:35:03;;;;;;;0.65;0.60;;;13.00;99.90;;;;;;4921253;29;20035;-80
2022/04/24 03:37:29;;;;;;;5.05;0.95;;;13.00;99.90;;;;;;4924902;29;20072;-81
2022/04/24 03:39:55;;;;;;;2.88;0.85;;;13.10;99.90;;;;;;4939232;29;20432;-80
2022/04/24 03:42:21;;;;;;;3.30;1.20;;;13.10;99.90;;;;;;4939204;29;20499;-75
2022/04/24 03:44:46;;;;;;;3.55;1.73;;;13.10;99.90;;;;;;4939240;29;20035;-81
2022/04/24 03:47:13;;;;;;;1.65;1.38;;;13.10;99.90;;;;;;4937911;29;20031;-75
2022/04/24 03:49:39;;;;;;;3.03;1.67;;;13.10;99.90;;;;;;4938820;29;20502;-81
2022/04/24 03:52:05;;;;;;;0.85;0.73;;;13.10;99.90;;;;;;4938861;29;20035;-76
2022/04/24 03:54:32;;;;;;;1.60;1.50;;;13.10;99.90;;;;;;4915892;29;20499;-81
2022/04/24 03:57:00;;;;;;;2.00;0.93;;;13.10;99.90;;;;;;4900984;29;20084;-81
2022/04/24 03:59:26;;;;;;;0.52;0.50;;;13.10;99.90;;;;;;4902728;29;20408;-80
2022/04/24 04:01:52;;;;;;;2.25;1.65;;;13.10;99.90;;;;;;4899796;29;20029;-81
2022/04/24 04:04:17;;;;;;;1.50;0.93;;;13.10;99.90;;;;;;4900423;29;20025;-75
2022/04/24 04:06:43;;;;;;;0.95;0.95;;;13.10;99.90;;;;;;4900344;29;20480;-80
2022/04/24 04:09:10;;;;;;;8.98;2.33;;;13.10;99.90;;;;;;4900018;29;20115;-75
2022/04/24 04:11:35;;;;;;;0.63;0.63;;;13.20;99.90;;;;;;4900753;29;20060;-75
2022/04/24 04:14:04;;;;;;;1.88;0.88;;;13.20;99.90;;;;;;4900029;29;20071;-81
2022/04/24 04:16:30;;;;;;;0.95;0.63;;;13.10;99.90;;;;;;4900562;29;20100;-80
2022/04/24 04:18:55;;;;;;;9.73;0.55;;;13.10;99.90;;;;;;4900199;29;20119;-81
2022/04/24 04:21:21;;;;;;;1.55;0.93;;;13.10;99.90;;;;;;4900710;29;20031;-81
2022/04/24 04:23:47;;;;;;;0.60;0.60;;;13.10;99.90;;;;;;4901177;29;20028;-81
2022/04/24 04:26:13;;;;;;;7.07;1.83;;;13.10;99.90;;;;;;4900036;29;20057;-75
2022/04/24 04:28:39;;;;;;;2.33;1.35;;;13.00;99.90;;;;;;4915520;29;20380;-75
2022/04/24 04:31:04;;;;;;;2.65;1.60;;;13.00;99.90;;;;;;4919010;29;20119;-76
2022/04/24 04:33:30;;;;;;;4.50;1.35;;;13.00;99.90;;;;;;4918058;29;20119;-80
2022/04/24 04:35:56;;;;;;;2.00;1.00;;;13.00;99.90;;;;;;4918716;29;20115;-79
2022/04/24 04:38:21;;;;;;;1.50;1.42;;;13.00;99.90;;;;;;4930777;29;20442;-80
2022/04/24 04:40:47;;;;;;;0.50;0.50;;;13.00;99.90;;;;;;4938037;29;20082;-75
2022/04/24 04:43:13;;;;;;;5.28;1.50;;;13.00;99.90;;;;;;4935912;29;20391;-75
2022/04/24 04:45:38;;;;;;;3.22;1.05;;;12.90;99.90;;;;;;4938167;29;20020;-75
2022/04/24 04:48:04;;;;;;;4.32;1.23;;;12.90;99.90;;;;;;4937841;29;20031;-80
2022/04/24 04:50:30;;;;;;;0.20;0.20;;;12.90;99.90;;;;;;4937852;29;20514;-75
2022/04/24 04:52:55;;;;;;;3.90;1.30;;;12.80;99.90;;;;;;4937987;29;20469;-75
2022/04/24 04:55:21;;;;;;;1.85;1.73;;;12.80;99.90;;;;;;4902314;29;20480;-80
2022/04/24 04:57:47;;;;;;;6.18;2.95;;;12.80;99.90;;;;;;4899789;29;20028;-75
2022/04/24 05:00:14;;;;;;;5.07;2.15;;;12.80;99.90;;;;;;4899185;29;20039;-81
2022/04/24 05:02:40;;;;;;;9.55;3.42;;;12.80;99.90;;;;;;4898880;29;20036;-75
2022/04/24 05:05:07;;;;;;;1.48;1.38;;;12.80;99.90;;;;;;4899701;29;20027;-74
2022/04/24 05:07:33;;;;;;;3.03;1.30;;;12.80;99.90;;;;;;4899798;29;20020;-75
2022/04/24 05:09:59;;;;;;;0.98;0.82;;;12.80;99.90;;;;;;4899909;29;20049;-74
2022/04/24 05:12:28;;;;;;;1.15;1.15;;;12.80;99.90;;;;;;4899728;29;20084;-74
2022/04/24 05:15:09;;;;;;;1.45;1.35;;;12.80;99.90;;;;;;4899471;29;20465;-75
2022/04/24 05:17:36;;;;;;;7.82;2.72;;;12.80;99.90;;;;;;4898871;29;20116;-75
2022/04/24 05:20:12;;;;;;;0.65;0.65;;;12.90;99.90;;;;;;4899345;29;20040;-75
2022/04/24 05:22:39;;;;;;;1.45;0.90;;;12.90;99.90;;;;;;4899706;29;20480;-80
2022/04/24 05:25:07;;;;;;;0.82;0.82;;;12.90;99.90;;;;;;4899201;29;20020;-74
2022/04/24 05:27:32;;;;;;;2.65;1.52;;;12.90;99.90;;;;;;4906288;29;20408;-75
2022/04/24 05:30:01;;;;;;;11.18;2.25;;;12.90;99.90;;;;;;4917920;29;20028;-74
2022/04/24 05:32:27;;;;;;;12.80;2.67;;;12.90;99.90;;;;;;4919482;29;20055;-80
2022/04/24 05:34:52;;;;;;;5.22;1.92;;;12.90;99.90;;;;;;4918158;29;20036;-74
2022/04/24 05:37:21;;;;;;;1.30;1.30;;;13.00;99.90;;;;;;4920022;29;20509;-75
2022/04/24 05:39:47;;;;;;;2.28;2.10;;;13.00;99.90;;;;;;4935670;29;20450;-74
2022/04/24 05:42:12;;;;;;;2.70;1.75;;;13.00;99.90;;;;;;4936706;29;20020;-80
2022/04/24 05:44:38;;;;;;;5.57;3.03;;;13.10;99.90;;;;;;4936931;29;20031;-80
2022/04/24 05:47:04;;;;;;;2.15;1.95;;;13.10;99.90;;;;;;4936381;29;20044;-80
2022/04/24 05:49:32;;;;;;;3.78;2.65;;;13.30;99.90;;;;;;4937166;29;20063;-74
2022/04/24 05:51:58;;;;;;;3.42;2.22;;;13.30;99.90;;;;;;4936871;29;20496;-74
2022/04/24 05:54:23;;;;;;;9.57;3.05;;;13.30;99.90;;;;;;4914323;29;20044;-75
2022/04/24 05:56:49;;;;;;;2.70;1.30;;;13.30;99.90;;;;;;4898946;29;20039;-74
2022/04/24 05:59:15;;;;;;;10.02;2.28;;;13.30;99.90;;;;;;4898734;29;20036;-74
2022/04/24 06:01:40;;;;;;;7.63;3.15;;;13.40;99.90;;;;;;4898940;29;20035;-75
2022/04/24 06:04:06;;;;;;;11.02;2.47;;;13.40;99.90;;;;;;4905355;29;20063;-76
2022/04/24 06:06:32;;;;;;;7.50;2.72;;;13.40;99.90;;;;;;4917761;29;20035;-75
2022/04/24 06:08:58;;;;;;;6.55;4.90;;;13.40;99.90;;;;;;4917758;29;20464;-74
2022/04/24 06:11:23;;;;;;;4.43;2.60;;;13.50;99.90;;;;;;4917546;29;20024;-80
2022/04/24 06:13:49;;;;;;;3.22;2.17;;;13.60;99.90;;;;;;4915982;29;20031;-75
2022/04/24 06:16:15;;;;;;;4.40;1.88;;;13.50;99.90;;;;;;4916031;29;20029;-75
2022/04/24 06:18:40;;;;;;;1.95;1.73;;;13.60;99.90;;;;;;4921564;29;20036;-74
2022/04/24 06:21:07;;;;;;;1.67;1.60;;;13.60;99.90;;;;;;4917400;29;20024;-76
2022/04/24 06:23:32;;;;;;;12.73;4.60;;;13.70;99.90;;;;;;4917498;29;20506;-78
2022/04/24 06:25:58;;;;;;;3.15;2.35;;;13.80;99.90;;;;;;4917581;29;20142;-75
2022/04/24 06:28:25;;;;;;;5.82;2.17;;;13.90;99.90;;;;;;4916446;29;20040;-75
2022/04/24 06:30:50;;;;;;;5.03;2.33;;;14.10;99.90;;;;;;4916684;29;20036;-75
2022/04/24 06:33:18;;;;;;;6.63;2.38;;;14.10;99.90;;;;;;4916365;29;20371;-79
2022/04/24 06:35:45;;;;;;;3.70;2.30;;;14.00;99.90;;;;;;4917163;29;20112;-74
2022/04/24 06:38:11;;;;;;;5.05;2.65;;;14.10;99.90;;;;;;4926124;29;20036;-75
2022/04/24 06:40:37;;;;;;;5.35;3.05;;;14.20;99.90;;;;;;4936141;29;20024;-78
2022/04/24 06:43:05;;;;;;;3.45;2.08;;;14.40;99.90;;;;;;4936562;29;20372;-75
2022/04/24 06:45:38;;;;;;;12.65;2.97;;;14.50;99.90;;;;;;4936374;29;20083;-74
2022/04/24 06:48:10;;;;;;;20.05;2.67;;;14.40;99.90;;;;;;4936181;29;20024;-79
2022/04/24 06:50:38;;;;;;;12.82;4.13;;;14.30;99.90;;;;;;4934533;29;20055;-75
2022/04/24 06:53:08;;;;;;;13.25;4.13;;;14.20;99.90;;;;;;4936117;29;20039;-79
2022/04/24 06:55:36;;;;;;;2.85;1.95;;;14.20;99.90;;;;;;4898001;29;20400;-74
2022/04/24 06:58:03;;;;;;;4.90;4.45;;;14.20;99.90;;;;;;4900376;29;20033;-79
2022/04/24 07:00:30;;;;;;;4.97;3.45;;;14.40;99.90;;;;;;4901766;29;20111;-74
2022/04/24 07:02:56;;;;;;;10.98;4.65;;;14.40;99.90;;;;;;4901558;29;20029;-76
2022/04/24 07:05:24;;;;;;;8.43;4.30;;;14.40;99.90;;;;;;4900632;29;20027;-78
2022/04/24 07:07:50;;;;;;;3.08;1.58;;;14.40;99.90;;;;;;4900735;29;20060;-77
2022/04/24 07:10:16;;;;;;;6.55;2.75;;;14.40;99.90;;;;;;4901950;29;20465;-79
2022/04/24 07:12:52;;;;;;;7.57;2.75;;;14.50;99.90;;;;;;4901199;29;20044;-74
2022/04/24 07:15:21;;;;;;;4.82;2.50;;;14.90;99.90;;;;;;4901723;29;20123;-81
2022/04/24 07:17:48;;;;;;;3.50;2.75;;;14.90;99.90;;;;;;4901832;29;20032;-79
2022/04/24 07:20:17;;;;;;;5.93;1.95;;;15.00;99.90;;;;;;4899994;29;20025;-80
2022/04/24 07:22:44;;;;;;;6.80;3.10;;;15.30;99.90;;;;;;4901901;29;20107;-78
2022/04/24 07:25:10;;;;;;;44.35;5.95;;;15.00;99.90;;;;;;4900140;29;20473;-75
2022/04/24 07:27:36;;;;;;;5.20;2.65;;;15.00;99.90;;;;;;4907564;29;20514;-80
2022/04/24 07:30:01;;;;;;;7.32;3.13;;;15.00;99.90;;;;;;4920161;29;20047;-82
2022/04/24 07:32:27;;;;;;;5.47;3.13;;;15.40;99.90;;;;;;4920441;29;20056;-75
2022/04/24 07:34:53;;;;;;;4.05;1.95;;;15.60;99.90;;;;;;4923852;29;20439;-81
2022/04/24 07:37:18;;;;;;;9.07;5.20;;;15.70;99.90;;;;;;4924173;29;20024;-74
2022/04/24 07:39:44;;;;;;;3.92;2.95;;;15.90;99.90;;;;;;4938638;29;20506;-80
2022/04/24 07:42:09;;;;;;;8.02;4.13;;;16.00;99.90;;;;;;4939171;29;20016;-80
2022/04/24 07:44:35;;;;;;;5.93;3.63;;;16.10;99.90;;;;;;4938874;29;20498;-74
2022/04/24 07:47:01;;;;;;;7.43;2.58;;;16.10;99.90;;;;;;4941779;28;20060;-80
2022/04/24 07:49:29;;;;;;;13.63;3.08;;;15.80;99.90;;;;;;4938904;29;20034;-81
2022/04/24 07:51:55;;;;;;;13.13;4.38;;;15.70;99.90;;;;;;4939445;29;20071;-83
2022/04/24 07:54:20;;;;;;;6.07;2.70;;;15.40;99.90;;;;;;4919510;29;20073;-80
2022/04/24 07:56:46;;;;;;;6.18;2.35;;;15.30;99.90;;;;;;4901508;29;20399;-80
2022/04/24 07:59:12;;;;;;;8.07;1.90;;;15.30;99.90;;;;;;4902341;29;20063;-75
2022/04/24 08:01:37;;;;;;;5.28;2.70;;;15.20;99.90;;;;;;4901430;29;20368;-80
2022/04/24 08:04:03;;;;;;;13.27;3.28;;;15.30;99.90;;;;;;4899457;29;20025;-74
2022/04/24 08:06:29;;;;;;;17.85;2.53;;;15.40;99.90;;;;;;4900449;29;20081;-75
2022/04/24 08:08:54;;;;;;;6.57;3.63;;;15.50;99.90;;;;;;4901381;29;20056;-74
2022/04/24 08:11:20;;;;;;;15.40;3.75;;;15.60;99.90;;;;;;4900362;29;20036;-74
2022/04/24 08:13:45;;;;;;;11.20;3.53;;;15.60;99.90;;;;;;4900117;29;20024;-74
2022/04/24 08:16:11;;;;;;;4.55;2.78;;;15.60;99.90;;;;;;4900864;29;20519;-81
2022/04/24 08:18:37;;;;;;;8.82;2.38;;;15.60;99.90;;;;;;4900861;29;20060;-75
2022/04/24 08:21:02;;;;;;;12.00;3.83;;;15.50;99.90;;;;;;4900463;29;20060;-73
2022/04/24 08:23:28;;;;;;;6.60;2.08;;;15.30;99.90;;;;;;4899389;29;20032;-74
2022/04/24 08:25:54;;;;;;;3.90;1.73;;;15.20;99.90;;;;;;4900449;29;20093;-74
2022/04/24 08:28:21;;;;;;;5.30;2.90;;;15.00;99.90;;;;;;4907510;29;20040;-74
2022/04/24 08:30:48;;;;;;;7.00;2.33;;;14.90;99.90;;;;;;4899940;29;20556;-74
2022/04/24 08:33:15;;;;;;;3.17;2.25;;;14.90;99.90;;;;;;4899053;29;20400;-81
2022/04/24 08:35:42;;;;;;;12.80;2.60;;;14.80;99.90;;;;;;4900088;29;20036;-75
2022/04/24 08:38:08;;;;;;;3.75;1.83;;;14.90;99.90;;;;;;4920049;29;20078;-82
2022/04/24 08:40:35;;;;;;;7.65;2.45;;;14.90;99.90;;;;;;4936710;29;20114;-74
2022/04/24 08:43:00;;;;;;;4.47;2.20;;;15.00;99.90;;;;;;4940562;29;20052;-74
2022/04/24 08:45:30;;;;;;;7.13;3.03;;;15.20;99.90;;;;;;4938170;29;20023;-74
2022/04/24 08:47:57;;;;;;;6.20;2.13;;;15.20;99.90;;;;;;4938093;29;20109;-74
2022/04/24 08:50:27;;;;;;;2.95;2.17;;;15.30;99.90;;;;;;4937881;29;20032;-74
2022/04/24 08:52:55;;;;;;;3.15;2.85;;;15.40;99.90;;;;;;4938163;29;20106;-74
2022/04/24 08:55:21;;;;;;;8.15;1.63;;;15.70;99.90;;;;;;4901583;29;20507;-74
2022/04/24 08:57:46;;;;;;;7.90;3.20;;;15.80;99.90;;;;;;4900004;29;20071;-74
2022/04/24 09:00:13;;;;;;;2.63;2.05;;;15.60;99.90;;;;;;4899966;29;20028;-81
2022/04/24 09:02:39;;;;;;;2.15;0.55;;;15.50;99.90;;;;;;4900674;29;20028;-73
2022/04/24 09:05:06;;;;;;;4.55;2.25;;;15.30;99.90;;;;;;4899053;29;20024;-79
2022/04/24 09:07:33;;;;;;;6.55;1.30;;;14.80;99.90;;;;;;4898371;29;20055;-74
2022/04/24 09:10:03;;;;;;;2.03;1.48;;;14.90;99.90;;;;;;4899716;29;20032;-74
2022/04/24 09:12:29;;;;;;;4.60;2.22;;;14.80;99.90;;;;;;4898489;29;20053;-79
2022/04/24 09:14:57;;;;;;;6.10;1.60;;;15.00;99.90;;;;;;4900240;29;20430;-74
2022/04/24 09:17:32;;;;;;;2.50;1.30;;;14.80;99.90;;;;;;4898302;29;20064;-74
2022/04/24 09:19:59;;;;;;;1.38;1.27;;;14.90;99.90;;;;;;4899264;29;20361;-75
2022/04/24 09:22:25;;;;;;;4.85;1.88;;;14.90;99.90;;;;;;4898544;29;20035;-83
2022/04/24 09:24:56;;;;;;;2.92;2.22;;;15.00;99.90;;;;;;4898706;29;20060;-74
2022/04/24 09:27:27;;;;;;;3.67;1.45;;;15.20;99.90;;;;;;4905052;29;20055;-74
2022/04/24 09:30:00;;;;;;;7.30;1.55;;;15.10;99.90;;;;;;4918031;29;20042;-74
2022/04/24 09:32:27;;;;;;;8.63;2.50;;;14.70;99.90;;;;;;4918365;29;20028;-76
2022/04/24 09:34:53;;;;;;;4.32;2.65;;;14.40;99.90;;;;;;4918024;29;20060;-74
2022/04/24 09:37:20;;;;;;;2.10;1.20;;;14.40;99.90;;;;;;4918236;29;20076;-81
2022/04/24 09:39:46;;;;;;;3.97;1.95;;;14.30;99.90;;;;;;4916606;29;20028;-81
2022/04/24 09:42:18;;;;;;;4.22;1.20;;;14.30;99.90;;;;;;4918027;29;20031;-80
2022/04/24 09:44:48;;;;;;;5.97;2.78;;;14.20;99.90;;;;;;4918251;29;20501;-74
2022/04/24 09:47:17;;;;;;;2.30;1.58;;;14.20;99.90;;;;;;4916838;29;20080;-79
2022/04/24 09:49:50;;;;;;;6.38;2.55;;;14.10;99.90;;;;;;4918034;29;20491;-77
2022/04/24 09:52:24;;;;;;;7.50;3.28;;;13.90;99.90;;;;;;4917833;29;20111;-82
2022/04/24 09:54:53;;;;;;;4.30;2.22;;;13.80;99.90;;;;;;4904279;29;20028;-81
2022/04/24 09:57:22;;;;;;;6.38;3.60;;;14.00;99.90;;;;;;4899094;29;20575;-74
2022/04/24 09:59:48;;;;;;;9.63;3.30;;;14.10;99.90;;;;;;4897313;29;20127;-79
2022/04/24 10:02:18;;;;;;;3.70;2.13;;;14.20;99.90;;;;;;4902126;29;20471;-74
2022/04/24 10:04:46;;;;;;;3.85;1.88;;;14.20;99.90;;;;;;4897733;29;20025;-78
2022/04/24 10:07:13;;;;;;;9.13;1.67;;;14.20;99.90;;;;;;4899033;29;20376;-75
2022/04/24 10:09:47;;;;;;;2.03;1.52;;;14.30;99.90;;;;;;4898532;29;20031;-77
2022/04/24 10:12:16;;;;;;;5.75;2.03;;;14.20;99.90;;;;;;4898585;29;20108;-75
2022/04/24 10:14:53;;;;;;;6.85;2.05;;;14.20;99.90;;;;;;4897963;29;20025;-74
2022/04/24 10:17:52;;;;;;;2.05;1.42;;;14.30;99.90;;;;;;4898398;29;20060;-74
2022/04/24 10:20:26;;;;;;;1.45;1.20;;;14.70;99.90;;;;;;4898584;29;20111;-75
2022/04/24 10:22:57;;;;;;;8.80;3.22;;;15.10;99.90;;;;;;4897500;29;20028;-81
2022/04/24 10:25:41;;;;;;;7.65;3.00;;;15.30;99.90;;;;;;4898207;29;20044;-74
2022/04/24 10:28:16;;;;;;;2.53;1.75;;;15.30;99.90;;;;;;4905007;29;20032;-72
2022/04/24 10:30:56;;;;;;;7.05;3.00;;;15.30;99.90;;;;;;4898244;29;20097;-78
2022/04/24 10:33:24;;;;;;;17.35;3.17;;;15.40;99.90;;;;;;4897565;29;20399;-75
2022/04/24 10:36:13;;;;;;;8.18;3.13;;;15.40;99.90;;;;;;4898317;29;20466;-75
2022/04/24 10:38:59;;;;;;;6.90;4.15;;;15.50;99.90;;;;;;4926043;29;20511;-81
2022/04/24 10:41:29;;;;;;;15.05;4.68;;;15.30;99.90;;;;;;4943226;29;20040;-74
2022/04/24 10:44:07;;;;;;;3.90;1.95;;;15.40;99.90;;;;;;4936299;29;20047;-76
2022/04/24 10:46:37;;;;;;;9.57;2.95;;;15.10;99.90;;;;;;4936475;29;20032;-80
2022/04/24 10:49:13;;;;;;;4.75;2.15;;;15.30;99.90;;;;;;4935146;29;20036;-78
2022/04/24 10:51:41;;;;;;;3.95;1.88;;;15.10;99.90;;;;;;4937639;29;20036;-78
2022/04/24 10:54:13;;;;;;;3.72;2.80;;;15.40;99.90;;;;;;4920600;29;20028;-78
2022/04/24 10:56:50;;;;;;;2.90;2.58;;;15.70;99.90;;;;;;4898251;29;20059;-79
2022/04/24 10:59:18;;;;;;;9.70;3.35;;;16.60;99.90;;;;;;4898134;29;20060;-82
2022/04/24 11:01:48;;;;;;;6.82;2.50;;;17.60;99.90;;;;;;4898230;29;20381;-83
2022/04/24 11:04:15;;;;;;;6.75;2.72;;;17.50;99.90;;;;;;4900184;29;20021;-77
2022/04/24 11:06:56;;;;;;;9.27;2.15;;;17.10;99.90;;;;;;4909602;29;20452;-76
2022/04/24 11:09:22;;;;;;;1.27;1.17;;;16.30;99.90;;;;;;4897850;29;20029;-75
2022/04/24 11:11:52;;;;;;;5.65;2.50;;;15.90;99.90;;;;;;4896814;29;20123;-77
2022/04/24 11:14:23;;;;;;;7.40;3.72;;;15.50;99.90;;;;;;4898024;29;20145;-75
2022/04/24 11:16:53;;;;;;;5.60;2.42;;;15.30;99.90;;;;;;4898004;29;20080;-75
2022/04/24 11:19:29;;;;;;;4.78;2.10;;;15.20;99.90;;;;;;4901073;29;20032;-74
2022/04/24 11:22:01;;;;;;;8.63;3.83;;;15.30;99.90;;;;;;4896698;29;20526;-79
2022/04/24 11:24:29;;;;;;;4.32;3.33;;;15.30;99.90;;;;;;4897909;29;20403;-81
2022/04/24 11:26:56;;;;;;;3.90;2.15;;;15.30;99.90;;;;;;4897618;29;20063;-75
2022/04/24 11:29:23;;;;;;;4.10;2.25;;;14.80;99.90;;;;;;4897929;29;20029;-74
2022/04/24 11:31:50;;;;;;;3.88;2.28;;;14.60;99.90;;;;;;4897641;29;20066;-72
2022/04/24 11:34:20;;;;;;;8.18;1.42;;;14.40;99.90;;;;;;4897495;29;20092;-75
2022/04/24 11:36:48;;;;;;;2.15;1.88;;;14.50;99.90;;;;;;4898021;29;20035;-74
2022/04/24 11:39:14;;;;;;;2.40;1.42;;;14.50;99.90;;;;;;4934633;29;20043;-75
2022/04/24 11:41:41;;;;;;;2.97;2.00;;;14.70;99.90;;;;;;4935621;29;20028;-74
2022/04/24 11:52:25;;;;;;;2.00;1.75;;;14.50;99.90;;;;;;4939111;29;20043;-73
2022/04/24 11:54:51;;;;;;;11.30;2.55;;;14.40;99.90;;;;;;4912435;29;20060;-73
2022/04/24 11:57:18;;;;;;;10.63;2.92;;;14.30;99.90;;;;;;4901117;29;20497;-82
2022/04/24 11:59:52;;;;;;;2.28;1.38;;;14.20;99.90;;;;;;4900356;29;20040;-73
2022/04/24 12:02:18;;;;;;;3.10;2.40;;;14.20;99.90;;;;;;4901068;29;20027;-76
2022/04/24 12:04:49;;;;;;;4.07;2.33;;;14.20;99.90;;;;;;4899068;29;20032;-73
2022/04/24 12:07:14;;;;;;;5.47;1.45;;;14.10;99.90;;;;;;4900337;29;20039;-74
2022/04/24 12:09:40;;;;;;;3.90;2.78;;;14.10;99.90;;;;;;4900941;29;20036;-73
2022/04/24 12:12:10;;;;;;;1.73;1.60;;;14.10;99.90;;;;;;4900363;29;20411;-74
2022/04/24 12:14:37;;;;;;;7.78;1.27;;;14.30;99.90;;;;;;4899467;29;20033;-73
2022/04/24 12:17:10;;;;;;;3.40;1.98;;;14.40;99.90;;;;;;4900419;29;20392;-74
2022/04/24 12:19:40;;;;;;;7.05;2.47;;;14.60;99.90;;;;;;4898214;29;20080;-73
2022/04/24 12:22:11;;;;;;;6.70;2.13;;;14.70;99.90;;;;;;4901260;29;20476;-74
2022/04/24 12:24:41;;;;;;;3.72;1.60;;;14.90;99.90;;;;;;4899416;29;20085;-73
2022/04/24 12:27:15;;;;;;;6.60;2.35;;;14.70;99.90;;;;;;4900442;29;20045;-73
2022/04/24 12:29:50;;;;;;;1.85;1.17;;;14.70;99.90;;;;;;4898938;29;20120;-73
2022/04/24 12:32:26;;;;;;;2.05;1.33;;;14.50;99.90;;;;;;4900834;29;20029;-76
2022/04/24 12:34:52;;;;;;;4.15;3.03;;;14.40;99.90;;;;;;4900463;29;20033;-76
2022/04/24 12:37:34;;;;;;;3.80;2.40;;;14.40;99.90;;;;;;4907139;29;20023;-79
2022/04/24 12:40:01;;;;;;;2.35;1.83;;;14.40;99.90;;;;;;4938300;29;20032;-77
2022/04/24 12:42:27;;;;;;;1.55;0.88;;;14.30;99.90;;;;;;4938346;29;20030;-75
2022/04/24 12:44:53;;;;;;;16.23;1.88;;;14.30;99.90;;;;;;4937073;29;20032;-76
2022/04/24 12:47:20;;;;;;;1.40;0.88;;;14.20;99.90;;;;;;4937945;29;20030;-76
2022/04/24 12:49:47;;;;;;;10.75;5.35;;;14.20;99.90;;;;;;4937923;29;20028;-76
2022/04/24 12:52:14;;;;;;;9.25;1.83;;;14.20;99.90;;;;;;4944406;29;20030;-76
2022/04/24 12:54:40;;;;;;;2.85;1.73;;;14.20;99.90;;;;;;4925027;29;20032;-76